Terminal Aerodrome Forecast
Issued by NWS Cleveland, OH

Home | Current Version | Previous Version | Graphics & Text | Print | Product List | Glossary Off
Versions: 1 2 3 4 5 6 7 8 9 10 11 12 13 14 15 16 17

000
FTUS41 KCLE 212337
TAFMFD
TAF
KMFD 212337Z 2200/2224 21005KT P6SM OVC080
     FM220600 21004KT 4SM BR OVC035
     FM220900 18004KT 3SM BR OVC012
      TEMPO 2210/2214 1SM BR OVC008
     FM221600 19007KT 5SM BR OVC020
     FM222300 20007KT P6SM OVC035=

USA.gov is the U.S. government's official web portal to all federal, state and local government web resources and services.